SHT8D EGLL-EGPH
Flight info
| Callsign | SHT8D |
|---|---|
| Flight time | 1h 19m |
| Altitude | 32000 |
| Route | ULTIB T420 TNT UN57 POL UN601 RIBEL DCT INPIP |
| Aircraft | A320/M-SDE3FGHIRWY/LB1 |
Departure
| Time | 2026-04-20 17:48 |
|---|---|
| Airport | London Heathrow Airport (EGLL) |
Arrival
| Time | 2026-04-20 19:07 |
|---|---|
| Airport | Edinburgh Airport (EGPH) |
| Time | Latitude | Longitude | Altitude | Speed | Heading |
|---|---|---|---|---|---|
| 2026-04-20 17:08 | 51.47115 | -0.48005 | 86 ft | 0 kts | 273° |
| 2026-04-20 17:30 | 51.47115 | -0.48000 | 86 ft | 2 kts | 273° |
| 2026-04-20 17:30 | 51.47114 | -0.47970 | 88 ft | 3 kts | 273° |
| 2026-04-20 17:30 | 51.47113 | -0.47937 | 86 ft | 3 kts | 273° |
| 2026-04-20 17:31 | 51.47112 | -0.47906 | 86 ft | 3 kts | 259° |
| 2026-04-20 17:31 | 51.47119 | -0.47880 | 86 ft | 3 kts | 218° |
| 2026-04-20 17:31 | 51.47131 | -0.47870 | 90 ft | 1 kts | 180° |
| 2026-04-20 17:31 | 51.47145 | -0.47870 | 86 ft | 3 kts | 180° |
| 2026-04-20 17:32 | 51.47154 | -0.47870 | 88 ft | 0 kts | 180° |
| 2026-04-20 17:34 | 51.47153 | -0.47870 | 88 ft | 0 kts | 180° |
| 2026-04-20 17:34 | 51.47131 | -0.47870 | 90 ft | 5 kts | 180° |
| 2026-04-20 17:34 | 51.47077 | -0.47871 | 86 ft | 9 kts | 180° |
| 2026-04-20 17:34 | 51.47005 | -0.47870 | 86 ft | 11 kts | 179° |
| 2026-04-20 17:35 | 51.46920 | -0.47869 | 86 ft | 13 kts | 180° |
| 2026-04-20 17:35 | 51.46830 | -0.47868 | 86 ft | 13 kts | 180° |
| 2026-04-20 17:35 | 51.46745 | -0.47867 | 86 ft | 12 kts | 180° |
| 2026-04-20 17:35 | 51.46671 | -0.47882 | 86 ft | 10 kts | 212° |
| 2026-04-20 17:36 | 51.46654 | -0.47970 | 86 ft | 9 kts | 270° |
| 2026-04-20 17:36 | 51.46654 | -0.48080 | 86 ft | 10 kts | 270° |
| 2026-04-20 17:36 | 51.46654 | -0.48103 | 86 ft | 0 kts | 269° |
| 2026-04-20 17:43 | 51.46653 | -0.48126 | 89 ft | 4 kts | 269° |
| 2026-04-20 17:43 | 51.46647 | -0.48183 | 86 ft | 6 kts | 244° |
| 2026-04-20 17:44 | 51.46606 | -0.48213 | 88 ft | 6 kts | 182° |
| 2026-04-20 17:44 | 51.46592 | -0.48213 | 88 ft | 0 kts | 179° |
| 2026-04-20 17:45 | 51.46577 | -0.48213 | 87 ft | 4 kts | 179° |
| 2026-04-20 17:45 | 51.46544 | -0.48213 | 88 ft | 6 kts | 179° |
| 2026-04-20 17:46 | 51.46513 | -0.48210 | 88 ft | 7 kts | 171° |
| 2026-04-20 17:46 | 51.46473 | -0.48157 | 89 ft | 9 kts | 119° |
| 2026-04-20 17:46 | 51.46478 | -0.48067 | 89 ft | 9 kts | 80° |
| 2026-04-20 17:46 | 51.46479 | -0.48047 | 88 ft | 0 kts | 87° |
| 2026-04-20 17:47 | 51.46479 | -0.48042 | 87 ft | 3 kts | 87° |
| 2026-04-20 17:47 | 51.46480 | -0.47809 | 87 ft | 50 kts | 89° |
| 2026-04-20 17:47 | 51.46483 | -0.46905 | 89 ft | 108 kts | 90° |
| 2026-04-20 17:47 | 51.46488 | -0.45454 | 88 ft | 150 kts | 90° |
| 2026-04-20 17:48 | 51.46487 | -0.43782 | 635 ft | 149 kts | 87° |
| 2026-04-20 17:48 | 51.46528 | -0.42116 | 1282 ft | 150 kts | 76° |
| 2026-04-20 17:48 | 51.46967 | -0.40550 | 1635 ft | 164 kts | 51° |
| 2026-04-20 17:48 | 51.47764 | -0.39051 | 1859 ft | 188 kts | 50° |
| 2026-04-20 17:49 | 51.48663 | -0.37343 | 2153 ft | 213 kts | 50° |
| 2026-04-20 17:49 | 51.49656 | -0.35448 | 2619 ft | 234 kts | 50° |
| 2026-04-20 17:49 | 51.50725 | -0.33399 | 3442 ft | 241 kts | 50° |
| 2026-04-20 17:49 | 51.51806 | -0.31302 | 4340 ft | 245 kts | 53° |
| 2026-04-20 17:50 | 51.52557 | -0.28859 | 5195 ft | 250 kts | 70° |
| 2026-04-20 17:50 | 51.53132 | -0.26190 | 6102 ft | 254 kts | 70° |
| 2026-04-20 17:50 | 51.53704 | -0.23478 | 6971 ft | 258 kts | 70° |
| 2026-04-20 17:50 | 51.54341 | -0.20737 | 7738 ft | 264 kts | 59° |
| 2026-04-20 17:51 | 51.55634 | -0.18688 | 8484 ft | 267 kts | 25° |
| 2026-04-20 17:51 | 51.57447 | -0.18199 | 9330 ft | 269 kts | 351° |
| 2026-04-20 17:51 | 51.59158 | -0.19350 | 10142 ft | 273 kts | 327° |
| 2026-04-20 17:51 | 51.60630 | -0.21352 | 10690 ft | 287 kts | 313° |
| 2026-04-20 17:52 | 51.62012 | -0.23857 | 10887 ft | 310 kts | 315° |
| 2026-04-20 17:52 | 51.63660 | -0.26216 | 11185 ft | 325 kts | 324° |
| 2026-04-20 17:52 | 51.65575 | -0.28228 | 11857 ft | 329 kts | 330° |
| 2026-04-20 17:52 | 51.67569 | -0.29999 | 12538 ft | 332 kts | 332° |
| 2026-04-20 17:53 | 51.69632 | -0.31746 | 13262 ft | 334 kts | 332° |
| 2026-04-20 17:53 | 51.71693 | -0.33527 | 13925 ft | 337 kts | 330° |
| 2026-04-20 17:53 | 51.73761 | -0.35388 | 14541 ft | 341 kts | 330° |
| 2026-04-20 17:53 | 51.75799 | -0.37292 | 15122 ft | 344 kts | 329° |
| 2026-04-20 17:54 | 51.77863 | -0.39273 | 15697 ft | 345 kts | 328° |
| 2026-04-20 17:54 | 51.79933 | -0.41284 | 16319 ft | 346 kts | 328° |
| 2026-04-20 17:54 | 51.81984 | -0.43284 | 16921 ft | 349 kts | 328° |
| 2026-04-20 17:54 | 51.84080 | -0.45332 | 17457 ft | 353 kts | 328° |
| 2026-04-20 17:55 | 51.86198 | -0.47397 | 18032 ft | 356 kts | 328° |
| 2026-04-20 17:55 | 51.88330 | -0.49474 | 18614 ft | 359 kts | 328° |
| 2026-04-20 17:55 | 51.90479 | -0.51565 | 19161 ft | 361 kts | 328° |
| 2026-04-20 17:55 | 51.92638 | -0.53667 | 19753 ft | 361 kts | 327° |
| 2026-04-20 17:56 | 51.94762 | -0.55736 | 20361 ft | 361 kts | 327° |
| 2026-04-20 17:56 | 51.96923 | -0.57842 | 20984 ft | 361 kts | 327° |
| 2026-04-20 17:56 | 51.99089 | -0.59958 | 21583 ft | 361 kts | 326° |
| 2026-04-20 17:56 | 52.01214 | -0.62041 | 22160 ft | 361 kts | 326° |
| 2026-04-20 17:57 | 52.03361 | -0.64157 | 22693 ft | 361 kts | 325° |
| 2026-04-20 17:57 | 52.05515 | -0.66280 | 23234 ft | 363 kts | 326° |
| 2026-04-20 17:57 | 52.07694 | -0.68428 | 23585 ft | 368 kts | 326° |
| 2026-04-20 17:57 | 52.09900 | -0.70599 | 24005 ft | 371 kts | 326° |
| 2026-04-20 17:58 | 52.12123 | -0.72780 | 24412 ft | 372 kts | 326° |
| 2026-04-20 17:58 | 52.14320 | -0.74937 | 24805 ft | 374 kts | 326° |
| 2026-04-20 17:58 | 52.16556 | -0.77139 | 25200 ft | 375 kts | 325° |
| 2026-04-20 17:58 | 52.18795 | -0.79351 | 25590 ft | 377 kts | 325° |
| 2026-04-20 17:59 | 52.21046 | -0.81582 | 25976 ft | 379 kts | 325° |
| 2026-04-20 17:59 | 52.23300 | -0.83817 | 26361 ft | 380 kts | 325° |
| 2026-04-20 17:59 | 52.25569 | -0.86066 | 26745 ft | 382 kts | 325° |
| 2026-04-20 17:59 | 52.27816 | -0.88292 | 27109 ft | 384 kts | 325° |
| 2026-04-20 18:00 | 52.30118 | -0.90572 | 27373 ft | 390 kts | 326° |
| 2026-04-20 18:00 | 52.32462 | -0.92903 | 27558 ft | 396 kts | 326° |
| 2026-04-20 18:00 | 52.34830 | -0.95264 | 27880 ft | 399 kts | 326° |
| 2026-04-20 18:00 | 52.37215 | -0.97643 | 28231 ft | 402 kts | 326° |
| 2026-04-20 18:01 | 52.39613 | -1.00035 | 28581 ft | 403 kts | 325° |
| 2026-04-20 18:01 | 52.41984 | -1.02406 | 29067 ft | 402 kts | 325° |
| 2026-04-20 18:01 | 52.44380 | -1.04807 | 29449 ft | 403 kts | 325° |
| 2026-04-20 18:01 | 52.46771 | -1.07205 | 29918 ft | 402 kts | 325° |
| 2026-04-20 18:02 | 52.49122 | -1.09568 | 30423 ft | 400 kts | 324° |
| 2026-04-20 18:02 | 52.51501 | -1.11963 | 30830 ft | 399 kts | 324° |
| 2026-04-20 18:02 | 52.53869 | -1.14357 | 31115 ft | 402 kts | 325° |
| 2026-04-20 18:02 | 52.56247 | -1.16760 | 31318 ft | 406 kts | 326° |
| 2026-04-20 18:03 | 52.58678 | -1.19210 | 31638 ft | 408 kts | 326° |
| 2026-04-20 18:03 | 52.61107 | -1.21655 | 31981 ft | 408 kts | 326° |
| 2026-04-20 18:03 | 52.63514 | -1.24084 | 32184 ft | 410 kts | 326° |
| 2026-04-20 18:04 | 52.68392 | -1.29022 | 32220 ft | 412 kts | 326° |
| 2026-04-20 18:04 | 52.73274 | -1.33975 | 32223 ft | 412 kts | 326° |
| 2026-04-20 18:04 | 52.75797 | -1.36154 | 32326 ft | 414 kts | 333° |
| 2026-04-20 18:05 | 52.81129 | -1.40007 | 32302 ft | 419 kts | 334° |
| 2026-04-20 18:05 | 52.86491 | -1.43857 | 32302 ft | 420 kts | 334° |
| 2026-04-20 18:06 | 52.91821 | -1.47678 | 32304 ft | 420 kts | 334° |
| 2026-04-20 18:06 | 52.97201 | -1.51548 | 32318 ft | 420 kts | 334° |
| 2026-04-20 18:07 | 53.02572 | -1.55425 | 32313 ft | 420 kts | 334° |
| 2026-04-20 18:07 | 53.07921 | -1.59295 | 32307 ft | 421 kts | 334° |
| 2026-04-20 18:08 | 53.13313 | -1.63216 | 32312 ft | 422 kts | 334° |
| 2026-04-20 18:08 | 53.18696 | -1.67143 | 32320 ft | 422 kts | 334° |
| 2026-04-20 18:09 | 53.24051 | -1.71060 | 32341 ft | 422 kts | 334° |
| 2026-04-20 18:09 | 53.29461 | -1.75030 | 32325 ft | 424 kts | 334° |
| 2026-04-20 18:10 | 53.34855 | -1.78981 | 32329 ft | 425 kts | 335° |
| 2026-04-20 18:10 | 53.40256 | -1.82943 | 32329 ft | 425 kts | 334° |
| 2026-04-20 18:11 | 53.45680 | -1.86958 | 32330 ft | 425 kts | 334° |
| 2026-04-20 18:11 | 53.51106 | -1.90997 | 32334 ft | 426 kts | 334° |
| 2026-04-20 18:12 | 53.56516 | -1.95033 | 32340 ft | 426 kts | 334° |
| 2026-04-20 18:12 | 53.61916 | -1.99047 | 32342 ft | 426 kts | 334° |
| 2026-04-20 18:13 | 53.67353 | -2.03088 | 32344 ft | 426 kts | 334° |
| 2026-04-20 18:13 | 53.72762 | -2.07144 | 32361 ft | 426 kts | 334° |
| 2026-04-20 18:14 | 53.78194 | -2.11234 | 32337 ft | 427 kts | 334° |
| 2026-04-20 18:14 | 53.83590 | -2.15301 | 32340 ft | 427 kts | 334° |
| 2026-04-20 18:15 | 53.89018 | -2.19398 | 32341 ft | 427 kts | 334° |
| 2026-04-20 18:15 | 53.94465 | -2.23536 | 32347 ft | 428 kts | 334° |
| 2026-04-20 18:16 | 53.99876 | -2.27651 | 32358 ft | 428 kts | 335° |
| 2026-04-20 18:16 | 54.05377 | -2.31714 | 32356 ft | 429 kts | 336° |
| 2026-04-20 18:17 | 54.10907 | -2.35481 | 32346 ft | 430 kts | 337° |
| 2026-04-20 18:17 | 54.16443 | -2.39224 | 32349 ft | 430 kts | 337° |
| 2026-04-20 18:18 | 54.22011 | -2.43074 | 32351 ft | 430 kts | 336° |
| 2026-04-20 18:18 | 54.27537 | -2.46939 | 32363 ft | 430 kts | 337° |
| 2026-04-20 18:19 | 54.33071 | -2.50813 | 32357 ft | 431 kts | 337° |
| 2026-04-20 18:19 | 54.38629 | -2.54711 | 32358 ft | 431 kts | 337° |
| 2026-04-20 18:20 | 54.44159 | -2.58602 | 32355 ft | 431 kts | 337° |
| 2026-04-20 18:20 | 54.49722 | -2.62523 | 32361 ft | 431 kts | 337° |
| 2026-04-20 18:21 | 54.55263 | -2.66453 | 32113 ft | 432 kts | 337° |
| 2026-04-20 18:21 | 54.58060 | -2.68441 | 31860 ft | 431 kts | 337° |
| 2026-04-20 18:21 | 54.60844 | -2.70421 | 31603 ft | 432 kts | 336° |
| 2026-04-20 18:22 | 54.63580 | -2.72365 | 31170 ft | 428 kts | 336° |
| 2026-04-20 18:22 | 54.66336 | -2.74325 | 30614 ft | 425 kts | 336° |
| 2026-04-20 18:22 | 54.69068 | -2.76275 | 30023 ft | 422 kts | 336° |
| 2026-04-20 18:22 | 54.71740 | -2.78184 | 29491 ft | 417 kts | 336° |
| 2026-04-20 18:23 | 54.74424 | -2.80101 | 28955 ft | 413 kts | 337° |
| 2026-04-20 18:23 | 54.77072 | -2.81997 | 28429 ft | 408 kts | 336° |
| 2026-04-20 18:23 | 54.79647 | -2.83847 | 27909 ft | 404 kts | 336° |
| 2026-04-20 18:23 | 54.82241 | -2.85711 | 27399 ft | 400 kts | 336° |
| 2026-04-20 18:24 | 54.84799 | -2.87550 | 26905 ft | 396 kts | 337° |
| 2026-04-20 18:24 | 54.87354 | -2.89394 | 26388 ft | 393 kts | 337° |
| 2026-04-20 18:24 | 54.89848 | -2.91193 | 25857 ft | 393 kts | 336° |
| 2026-04-20 18:24 | 54.92373 | -2.93016 | 25303 ft | 392 kts | 336° |
| 2026-04-20 18:25 | 54.94889 | -2.94835 | 24758 ft | 391 kts | 337° |
| 2026-04-20 18:25 | 54.97409 | -2.96658 | 24211 ft | 390 kts | 337° |
| 2026-04-20 18:25 | 54.99918 | -2.98477 | 23601 ft | 390 kts | 337° |
| 2026-04-20 18:25 | 55.02419 | -3.00294 | 23055 ft | 388 kts | 338° |
| 2026-04-20 18:26 | 55.04881 | -3.02089 | 22520 ft | 386 kts | 338° |
| 2026-04-20 18:26 | 55.07363 | -3.03900 | 21981 ft | 384 kts | 338° |
| 2026-04-20 18:26 | 55.09822 | -3.05695 | 21443 ft | 382 kts | 338° |
| 2026-04-20 18:26 | 55.12268 | -3.07483 | 20903 ft | 380 kts | 338° |
| 2026-04-20 18:27 | 55.14675 | -3.09243 | 20383 ft | 378 kts | 338° |
| 2026-04-20 18:27 | 55.17118 | -3.11032 | 19542 ft | 384 kts | 339° |
| 2026-04-20 18:27 | 55.19622 | -3.12867 | 18566 ft | 395 kts | 339° |
| 2026-04-20 18:27 | 55.22160 | -3.14732 | 17735 ft | 397 kts | 339° |
| 2026-04-20 18:28 | 55.24705 | -3.16604 | 16974 ft | 398 kts | 339° |
| 2026-04-20 18:28 | 55.27262 | -3.18484 | 16319 ft | 396 kts | 339° |
| 2026-04-20 18:28 | 55.29880 | -3.19850 | 15688 ft | 390 kts | 353° |
| 2026-04-20 18:28 | 55.32568 | -3.20007 | 15073 ft | 384 kts | 7° |
| 2026-04-20 18:29 | 55.35221 | -3.19598 | 14425 ft | 381 kts | 7° |
| 2026-04-20 18:29 | 55.37849 | -3.19186 | 14002 ft | 373 kts | 7° |
| 2026-04-20 18:29 | 55.40386 | -3.18791 | 13859 ft | 357 kts | 7° |
| 2026-04-20 18:29 | 55.42811 | -3.18419 | 13721 ft | 343 kts | 7° |
| 2026-04-20 18:30 | 55.45146 | -3.18063 | 13586 ft | 330 kts | 7° |
| 2026-04-20 18:30 | 55.47403 | -3.17711 | 13454 ft | 319 kts | 7° |
| 2026-04-20 18:30 | 55.49581 | -3.17367 | 13296 ft | 309 kts | 7° |
| 2026-04-20 18:30 | 55.51664 | -3.17040 | 13160 ft | 300 kts | 7° |
| 2026-04-20 18:31 | 55.53726 | -3.16717 | 13027 ft | 291 kts | 8° |
| 2026-04-20 18:31 | 55.55717 | -3.16405 | 12891 ft | 283 kts | 7° |
| 2026-04-20 18:31 | 55.57663 | -3.16099 | 12698 ft | 278 kts | 8° |
| 2026-04-20 18:31 | 55.59559 | -3.15796 | 12424 ft | 275 kts | 7° |
| 2026-04-20 18:32 | 55.61467 | -3.15490 | 12125 ft | 274 kts | 8° |
| 2026-04-20 18:32 | 55.63364 | -3.15184 | 11833 ft | 273 kts | 8° |
| 2026-04-20 18:32 | 55.65257 | -3.14882 | 11562 ft | 272 kts | 7° |
| 2026-04-20 18:32 | 55.66506 | -3.14685 | 11381 ft | 271 kts | 7° |
| 2026-04-20 18:33 | 55.68984 | -3.14312 | 11003 ft | 270 kts | 4° |
| 2026-04-20 18:33 | 55.70828 | -3.14925 | 10729 ft | 272 kts | 336° |
| 2026-04-20 18:33 | 55.71950 | -3.15964 | 10552 ft | 272 kts | 331° |
| 2026-04-20 18:33 | 55.74108 | -3.18256 | 10189 ft | 270 kts | 330° |
| 2026-04-20 18:34 | 55.75191 | -3.19429 | 9967 ft | 270 kts | 330° |
| 2026-04-20 18:34 | 55.76744 | -3.21312 | 9629 ft | 272 kts | 316° |
| 2026-04-20 18:34 | 55.77750 | -3.24058 | 9366 ft | 270 kts | 287° |
| 2026-04-20 18:34 | 55.77913 | -3.27343 | 9073 ft | 267 kts | 258° |
| 2026-04-20 18:35 | 55.77440 | -3.30539 | 8720 ft | 266 kts | 249° |
| 2026-04-20 18:35 | 55.76758 | -3.33576 | 8496 ft | 262 kts | 245° |
| 2026-04-20 18:35 | 55.76047 | -3.36477 | 8340 ft | 256 kts | 244° |
| 2026-04-20 18:35 | 55.75334 | -3.39359 | 8139 ft | 252 kts | 244° |
| 2026-04-20 18:36 | 55.74632 | -3.42211 | 7865 ft | 251 kts | 244° |
| 2026-04-20 18:36 | 55.73936 | -3.45056 | 7580 ft | 250 kts | 245° |
| 2026-04-20 18:36 | 55.73237 | -3.47860 | 7398 ft | 245 kts | 244° |
| 2026-04-20 18:36 | 55.72558 | -3.50585 | 7246 ft | 238 kts | 245° |
| 2026-04-20 18:37 | 55.71882 | -3.53265 | 6958 ft | 240 kts | 244° |
| 2026-04-20 18:37 | 55.71198 | -3.55993 | 6563 ft | 244 kts | 245° |
| 2026-04-20 18:37 | 55.70506 | -3.58746 | 6274 ft | 244 kts | 244° |
| 2026-04-20 18:37 | 55.69825 | -3.61491 | 6010 ft | 242 kts | 244° |
| 2026-04-20 18:38 | 55.69295 | -3.64282 | 5890 ft | 238 kts | 265° |
| 2026-04-20 18:38 | 55.69571 | -3.67119 | 5812 ft | 235 kts | 298° |
| 2026-04-20 18:38 | 55.70473 | -3.69424 | 5731 ft | 222 kts | 320° |
| 2026-04-20 18:38 | 55.71644 | -3.71031 | 5651 ft | 211 kts | 329° |
| 2026-04-20 18:39 | 55.72843 | -3.72486 | 5581 ft | 202 kts | 329° |
| 2026-04-20 18:39 | 55.74004 | -3.73880 | 5523 ft | 201 kts | 329° |
| 2026-04-20 18:39 | 55.75158 | -3.75255 | 5441 ft | 199 kts | 329° |
| 2026-04-20 18:39 | 55.76292 | -3.76605 | 5390 ft | 199 kts | 329° |
| 2026-04-20 18:40 | 55.77495 | -3.77772 | 5334 ft | 195 kts | 344° |
| 2026-04-20 18:40 | 55.78815 | -3.78177 | 5279 ft | 191 kts | 4° |
| 2026-04-20 18:40 | 55.80102 | -3.77792 | 5237 ft | 186 kts | 24° |
| 2026-04-20 18:40 | 55.81223 | -3.76711 | 5099 ft | 182 kts | 41° |
| 2026-04-20 18:41 | 55.82064 | -3.75072 | 4904 ft | 179 kts | 60° |
| 2026-04-20 18:41 | 55.82710 | -3.73189 | 4686 ft | 177 kts | 60° |
| 2026-04-20 18:41 | 55.83354 | -3.71325 | 4438 ft | 176 kts | 61° |
| 2026-04-20 18:41 | 55.83988 | -3.69482 | 4204 ft | 175 kts | 61° |
| 2026-04-20 18:42 | 55.84623 | -3.67637 | 3968 ft | 175 kts | 60° |
| 2026-04-20 18:42 | 55.85255 | -3.65796 | 3723 ft | 174 kts | 61° |
| 2026-04-20 18:42 | 55.85886 | -3.63959 | 3498 ft | 173 kts | 61° |
| 2026-04-20 18:42 | 55.86512 | -3.62134 | 3249 ft | 173 kts | 61° |
| 2026-04-20 18:43 | 55.87135 | -3.60317 | 3009 ft | 170 kts | 61° |
| 2026-04-20 18:43 | 55.87742 | -3.58545 | 2784 ft | 165 kts | 61° |
| 2026-04-20 18:43 | 55.88328 | -3.56832 | 2566 ft | 158 kts | 61° |
| 2026-04-20 18:43 | 55.88885 | -3.55203 | 2341 ft | 151 kts | 62° |
| 2026-04-20 18:44 | 55.89426 | -3.53622 | 2133 ft | 145 kts | 62° |
| 2026-04-20 18:44 | 55.89929 | -3.52150 | 1952 ft | 135 kts | 62° |
| 2026-04-20 18:44 | 55.90410 | -3.50740 | 1759 ft | 132 kts | 62° |
| 2026-04-20 18:44 | 55.90884 | -3.49348 | 1568 ft | 132 kts | 62° |
| 2026-04-20 18:45 | 55.91360 | -3.47953 | 1382 ft | 131 kts | 62° |
| 2026-04-20 18:45 | 55.91832 | -3.46566 | 1193 ft | 130 kts | 61° |
| 2026-04-20 18:45 | 55.92305 | -3.45190 | 1018 ft | 131 kts | 60° |
| 2026-04-20 18:45 | 55.92773 | -3.43808 | 793 ft | 129 kts | 60° |
| 2026-04-20 18:46 | 55.93237 | -3.42433 | 629 ft | 131 kts | 59° |
| 2026-04-20 18:46 | 55.93706 | -3.41053 | 460 ft | 130 kts | 59° |
| 2026-04-20 18:46 | 55.94169 | -3.39696 | 276 ft | 129 kts | 58° |
| 2026-04-20 18:46 | 55.94639 | -3.38311 | 132 ft | 128 kts | 59° |
| 2026-04-20 18:47 | 55.95046 | -3.37123 | 113 ft | 98 kts | 58° |
| 2026-04-20 18:47 | 55.95422 | -3.36001 | 295 ft | 116 kts | 60° |
| 2026-04-20 18:47 | 55.95825 | -3.34770 | 967 ft | 117 kts | 59° |
| 2026-04-20 18:47 | 55.96267 | -3.33491 | 1304 ft | 131 kts | 59° |
| 2026-04-20 18:48 | 55.96807 | -3.32013 | 1554 ft | 153 kts | 59° |
| 2026-04-20 18:48 | 55.97403 | -3.30286 | 1788 ft | 174 kts | 69° |
| 2026-04-20 18:48 | 55.97435 | -3.28078 | 2122 ft | 189 kts | 108° |
| 2026-04-20 18:48 | 55.96589 | -3.26169 | 2493 ft | 213 kts | 145° |
| 2026-04-20 18:49 | 55.95123 | -3.25403 | 2934 ft | 229 kts | 177° |
| 2026-04-20 18:49 | 55.93590 | -3.26136 | 3004 ft | 233 kts | 210° |
| 2026-04-20 18:49 | 55.92392 | -3.28108 | 3012 ft | 237 kts | 227° |
| 2026-04-20 18:49 | 55.91333 | -3.30370 | 3011 ft | 239 kts | 229° |
| 2026-04-20 18:50 | 55.90291 | -3.32681 | 3010 ft | 238 kts | 230° |
| 2026-04-20 18:50 | 55.89416 | -3.35137 | 3010 ft | 239 kts | 242° |
| 2026-04-20 18:50 | 55.88678 | -3.37828 | 3011 ft | 238 kts | 240° |
| 2026-04-20 18:50 | 55.87758 | -3.40230 | 3014 ft | 238 kts | 230° |
| 2026-04-20 18:51 | 55.86754 | -3.42576 | 3014 ft | 238 kts | 230° |
| 2026-04-20 18:51 | 55.85740 | -3.44913 | 3009 ft | 239 kts | 229° |
| 2026-04-20 18:51 | 55.84724 | -3.47253 | 3009 ft | 239 kts | 230° |
| 2026-04-20 18:51 | 55.83706 | -3.49589 | 3009 ft | 238 kts | 230° |
| 2026-04-20 18:52 | 55.82685 | -3.51911 | 3005 ft | 238 kts | 229° |
| 2026-04-20 18:52 | 55.81665 | -3.54233 | 3005 ft | 237 kts | 230° |
| 2026-04-20 18:52 | 55.80650 | -3.56527 | 2999 ft | 231 kts | 229° |
| 2026-04-20 18:52 | 55.79691 | -3.58711 | 3003 ft | 217 kts | 230° |
| 2026-04-20 18:53 | 55.78796 | -3.60768 | 2995 ft | 205 kts | 230° |
| 2026-04-20 18:53 | 55.77947 | -3.62774 | 2994 ft | 202 kts | 237° |
| 2026-04-20 18:53 | 55.77612 | -3.65123 | 3007 ft | 192 kts | 278° |
| 2026-04-20 18:53 | 55.78132 | -3.67154 | 3006 ft | 179 kts | 317° |
| 2026-04-20 18:54 | 55.79064 | -3.68571 | 3005 ft | 175 kts | 328° |
| 2026-04-20 18:54 | 55.80052 | -3.69825 | 2997 ft | 173 kts | 334° |
| 2026-04-20 18:54 | 55.81149 | -3.70589 | 2997 ft | 168 kts | 355° |
| 2026-04-20 18:54 | 55.82353 | -3.70599 | 3011 ft | 178 kts | 16° |
| 2026-04-20 18:55 | 55.83495 | -3.69806 | 3005 ft | 175 kts | 37° |
| 2026-04-20 18:55 | 55.84369 | -3.68344 | 3004 ft | 172 kts | 58° |
| 2026-04-20 18:55 | 55.84998 | -3.66538 | 3003 ft | 172 kts | 61° |
| 2026-04-20 18:55 | 55.85623 | -3.64723 | 3002 ft | 171 kts | 61° |
| 2026-04-20 18:56 | 55.86238 | -3.62931 | 3004 ft | 172 kts | 61° |
| 2026-04-20 18:56 | 55.86861 | -3.61112 | 2981 ft | 173 kts | 61° |
| 2026-04-20 18:56 | 55.87483 | -3.59298 | 2844 ft | 171 kts | 61° |
| 2026-04-20 18:56 | 55.88102 | -3.57492 | 2624 ft | 170 kts | 61° |
| 2026-04-20 18:57 | 55.88717 | -3.55694 | 2415 ft | 169 kts | 61° |
| 2026-04-20 18:57 | 55.89324 | -3.53918 | 2170 ft | 164 kts | 62° |
| 2026-04-20 18:57 | 55.89891 | -3.52259 | 1953 ft | 151 kts | 62° |
| 2026-04-20 18:57 | 55.90421 | -3.50710 | 1742 ft | 140 kts | 62° |
| 2026-04-20 18:58 | 55.90912 | -3.49268 | 1561 ft | 134 kts | 62° |
| 2026-04-20 18:58 | 55.91389 | -3.47869 | 1372 ft | 131 kts | 62° |
| 2026-04-20 18:58 | 55.91857 | -3.46494 | 1188 ft | 129 kts | 61° |
| 2026-04-20 18:58 | 55.92322 | -3.45120 | 1010 ft | 130 kts | 59° |
| 2026-04-20 18:59 | 55.92788 | -3.43743 | 791 ft | 130 kts | 59° |
| 2026-04-20 18:59 | 55.93260 | -3.42369 | 632 ft | 129 kts | 59° |
| 2026-04-20 18:59 | 55.93719 | -3.41023 | 469 ft | 129 kts | 59° |
| 2026-04-20 18:59 | 55.94175 | -3.39671 | 284 ft | 127 kts | 59° |
| 2026-04-20 19:00 | 55.94639 | -3.38317 | 135 ft | 125 kts | 58° |
| 2026-04-20 19:00 | 55.95052 | -3.37090 | 179 ft | 121 kts | 59° |
| 2026-04-20 19:00 | 55.95546 | -3.35616 | 556 ft | 156 kts | 59° |
| 2026-04-20 19:00 | 55.96025 | -3.33802 | 1407 ft | 166 kts | 79° |
| 2026-04-20 19:01 | 55.95834 | -3.31644 | 2098 ft | 190 kts | 117° |
| 2026-04-20 19:01 | 55.94844 | -3.29974 | 2570 ft | 211 kts | 150° |
| 2026-04-20 19:01 | 55.93399 | -3.28965 | 2950 ft | 233 kts | 158° |
| 2026-04-20 19:01 | 55.91816 | -3.28258 | 3005 ft | 237 kts | 175° |
| 2026-04-20 19:02 | 55.90207 | -3.28927 | 3011 ft | 244 kts | 207° |
| 2026-04-20 19:02 | 55.88935 | -3.30945 | 3011 ft | 248 kts | 231° |
| 2026-04-20 19:02 | 55.87999 | -3.33527 | 3011 ft | 247 kts | 238° |
| 2026-04-20 19:02 | 55.87170 | -3.36108 | 3009 ft | 233 kts | 239° |
| 2026-04-20 19:03 | 55.86399 | -3.38543 | 3014 ft | 218 kts | 239° |
| 2026-04-20 19:03 | 55.85690 | -3.40850 | 3008 ft | 206 kts | 239° |
| 2026-04-20 19:03 | 55.85109 | -3.43135 | 2910 ft | 202 kts | 259° |
| 2026-04-20 19:03 | 55.85248 | -3.45606 | 2533 ft | 207 kts | 297° |
| 2026-04-20 19:04 | 55.86112 | -3.47562 | 2055 ft | 200 kts | 324° |
| 2026-04-20 19:04 | 55.87271 | -3.48778 | 1755 ft | 182 kts | 346° |
| 2026-04-20 19:04 | 55.88395 | -3.49220 | 1687 ft | 154 kts | 2° |
| 2026-04-20 19:04 | 55.89408 | -3.49136 | 1578 ft | 139 kts | 17° |
| 2026-04-20 19:05 | 55.90292 | -3.48572 | 1464 ft | 132 kts | 36° |
| 2026-04-20 19:05 | 55.91023 | -3.47616 | 1330 ft | 128 kts | 46° |
| 2026-04-20 19:05 | 55.91654 | -3.46491 | 1196 ft | 128 kts | 52° |
| 2026-04-20 19:05 | 55.92220 | -3.45257 | 1022 ft | 129 kts | 55° |
| 2026-04-20 19:06 | 55.92738 | -3.43957 | 810 ft | 128 kts | 58° |
| 2026-04-20 19:06 | 55.93195 | -3.42587 | 641 ft | 128 kts | 60° |
| 2026-04-20 19:06 | 55.93647 | -3.41214 | 462 ft | 128 kts | 60° |
| 2026-04-20 19:06 | 55.94109 | -3.39866 | 282 ft | 128 kts | 58° |
| 2026-04-20 19:07 | 55.94575 | -3.38498 | 137 ft | 129 kts | 59° |
| 2026-04-20 19:07 | 55.94985 | -3.37289 | 111 ft | 96 kts | 59° |
| 2026-04-20 19:07 | 55.95209 | -3.36629 | 113 ft | 20 kts | 59° |
| 2026-04-20 19:07 | 55.95249 | -3.36447 | 111 ft | 18 kts | 107° |